createdAt,value
2019-02-22T00:05:58.775Z,22.10
2019-02-22T00:11:11.993Z,22.18
2019-02-22T00:16:06.257Z,24.45
2019-02-22T00:21:15.531Z,23.77
2019-02-22T00:26:13.102Z,22.60
2019-02-22T00:31:36.707Z,22.45
2019-02-22T00:36:25.338Z,22.65
2019-02-22T00:41:40.934Z,22.10
2019-02-22T00:46:44.255Z,22.01
2019-02-22T00:56:49.477Z,22.37
2019-02-22T01:01:57.064Z,21.60
2019-02-22T01:06:56.153Z,20.85
2019-02-22T01:12:10.693Z,21.02
2019-02-22T01:17:10.726Z,20.33
2019-02-22T01:22:14.951Z,19.93
2019-02-22T01:27:15.691Z,19.31
2019-02-22T01:32:24.303Z,20.18
2019-02-22T01:37:23.133Z,20.00
2019-02-22T01:42:32.751Z,20.84
2019-02-22T01:47:42.560Z,19.90
2019-02-22T01:53:06.843Z,19.44
2019-02-22T01:57:53.892Z,19.51
2019-02-22T02:03:05.064Z,18.96
2019-02-22T02:08:03.379Z,20.20
2019-02-22T02:13:15.829Z,19.97
2019-02-22T02:18:15.933Z,19.98
2019-02-22T02:23:17.443Z,17.74
2019-02-22T02:28:15.703Z,18.39
2019-02-22T02:33:26.550Z,19.04
2019-02-22T02:38:27.244Z,18.87
2019-02-22T02:43:28.203Z,18.53
2019-02-22T02:48:26.600Z,18.56
2019-02-22T02:53:36.665Z,19.41
2019-02-22T02:58:36.890Z,19.25
2019-02-22T03:03:39.709Z,19.11
2019-02-22T03:08:39.304Z,18.98
2019-02-22T03:13:50.034Z,18.30
2019-02-22T03:18:55.446Z,20.06
2019-02-22T03:23:58.056Z,19.31
2019-02-22T03:29:03.565Z,19.29
2019-02-22T03:34:02.223Z,19.53
2019-02-22T03:39:10.691Z,19.96
2019-02-22T03:44:21.778Z,20.21
2019-02-22T03:49:22.449Z,20.17
2019-02-22T03:54:23.454Z,20.04
2019-02-22T03:59:22.350Z,20.58
2019-02-22T04:04:34.226Z,19.75
2019-02-22T04:09:32.766Z,20.35
2019-02-22T04:14:43.964Z,20.17
2019-02-22T04:19:49.105Z,20.15
2019-02-22T04:24:53.743Z,19.69
2019-02-22T04:29:57.468Z,20.00
2019-02-22T04:34:58.320Z,20.20
2019-02-22T04:39:59.263Z,20.18
2019-02-22T04:45:21.399Z,19.97
2019-02-22T04:50:07.550Z,21.29
2019-02-22T04:55:15.194Z,18.91
2019-02-22T05:00:30.857Z,17.29
2019-02-22T05:10:48.010Z,19.56
2019-02-22T05:15:47.261Z,18.67
2019-02-22T05:20:49.548Z,20.06
2019-02-22T05:25:56.793Z,18.75
2019-02-22T05:31:04.141Z,18.30
2019-02-22T05:36:03.783Z,17.67
2019-02-22T05:41:11.530Z,17.80
2019-02-22T05:46:12.866Z,18.83
2019-02-22T05:51:17.090Z,18.57
2019-02-22T05:56:29.022Z,17.95
2019-02-22T06:01:30.564Z,18.75
2019-02-22T06:06:11.803Z,19.45
2019-02-22T06:11:26.362Z,18.26
2019-02-22T06:16:29.305Z,18.08
2019-02-22T06:26:20.382Z,18.35
2019-02-22T06:31:51.965Z,18.78
2019-02-22T06:36:41.656Z,18.13
2019-02-22T06:41:51.960Z,18.55
2019-02-22T06:46:48.818Z,18.59
2019-02-22T06:51:56.649Z,17.90
2019-02-22T06:56:56.783Z,18.22
2019-02-22T07:02:03.355Z,17.57
2019-02-22T07:07:13.047Z,18.33
2019-02-22T07:12:16.897Z,17.46
2019-02-22T07:17:16.988Z,18.55
2019-02-22T07:22:19.193Z,18.38
2019-02-22T07:27:19.645Z,19.02
2019-02-22T07:32:23.264Z,18.30
2019-02-22T07:42:37.899Z,18.29
2019-02-22T07:47:36.753Z,19.35
2019-02-22T07:52:47.128Z,18.60
2019-02-22T07:57:46.505Z,19.80
2019-02-22T08:02:58.784Z,31.29
2019-02-22T08:07:58.338Z,25.89
2019-02-22T08:13:19.695Z,23.32
2019-02-22T08:18:17.655Z,19.80
2019-02-22T08:23:29.686Z,20.30
2019-02-22T08:28:23.573Z,19.14
2019-02-22T08:33:28.346Z,27.28
2019-02-22T08:38:33.539Z,29.06
2019-02-22T08:43:34.175Z,26.63
2019-02-22T08:48:36.283Z,28.34
2019-02-22T08:53:38.152Z,20.21
2019-02-22T08:58:37.229Z,21.93
2019-02-22T09:03:55.225Z,42.57
2019-02-22T09:08:57.856Z,18.64
2019-02-22T09:14:00.330Z,18.38
2019-02-22T09:19:04.597Z,17.36
2019-02-22T09:24:04.685Z,22.35
2019-02-22T09:29:03.773Z,24.37
2019-02-22T09:34:23.530Z,25.21
2019-02-22T09:39:25.123Z,26.03
2019-02-22T09:44:28.872Z,25.77
2019-02-22T09:49:34.554Z,26.06
2019-02-22T09:54:37.145Z,27.76
2019-02-22T09:59:41.732Z,27.20
2019-02-22T10:04:40.508Z,27.07
2019-02-22T10:10:00.297Z,27.82
2019-02-22T10:15:00.470Z,27.94
2019-02-22T10:20:03.975Z,26.73
2019-02-22T10:25:10.248Z,27.94
2019-02-22T10:30:13.778Z,29.82
2019-02-22T10:35:28.929Z,27.70
2019-02-22T10:40:28.907Z,28.77
2019-02-22T10:45:33.020Z,26.36
2019-02-22T10:50:32.199Z,26.01
2019-02-22T10:55:44.149Z,25.04
2019-02-22T11:00:47.089Z,25.53
2019-02-22T11:05:51.387Z,26.75
2019-02-22T11:10:59.957Z,26.83
2019-02-22T11:15:54.180Z,26.44
2019-02-22T11:21:02.555Z,26.47
2019-02-22T11:25:58.903Z,26.94
2019-02-22T11:31:14.860Z,27.13
2019-02-22T11:36:05.706Z,28.45
2019-02-22T11:41:18.217Z,27.54
2019-02-22T11:46:19.872Z,26.28
2019-02-22T11:51:17.939Z,25.71
2019-02-22T11:56:38.465Z,25.83
2019-02-22T12:01:27.385Z,25.89
2019-02-22T12:06:30.909Z,25.40
2019-02-22T12:11:38.155Z,25.46
2019-02-22T12:16:38.640Z,25.03
2019-02-22T12:21:43.652Z,23.11
2019-02-22T12:26:43.753Z,23.83
2019-02-22T12:31:51.840Z,22.78
2019-02-22T12:36:52.020Z,22.48
2019-02-22T12:41:55.562Z,22.33
2019-02-22T12:46:58.238Z,22.27
2019-02-22T12:51:59.357Z,22.00
2019-02-22T12:57:01.755Z,22.86
2019-02-22T13:02:04.339Z,21.40
2019-02-22T13:07:21.510Z,20.73
2019-02-22T13:12:14.642Z,22.44
2019-02-22T13:17:13.680Z,21.64
2019-02-22T13:22:34.580Z,21.17
2019-02-22T13:27:25.024Z,20.83
2019-02-22T13:32:27.189Z,19.76
2019-02-22T13:37:28.192Z,20.90
2019-02-22T13:42:26.993Z,19.80
2019-02-22T13:47:43.158Z,20.00
2019-02-22T13:52:47.375Z,20.03
2019-02-22T13:57:48.389Z,22.39
2019-02-22T14:02:48.819Z,20.91
2019-02-22T14:07:48.408Z,20.95
2019-02-22T14:13:03.308Z,21.56
2019-02-22T14:18:01.621Z,22.31
2019-02-22T14:23:10.711Z,21.06
2019-02-22T14:28:19.383Z,20.98
2019-02-22T14:33:31.221Z,20.66
2019-02-22T14:38:32.657Z,20.19
2019-02-22T14:43:44.738Z,20.75
2019-02-22T14:48:36.281Z,20.12
2019-02-22T14:53:46.659Z,21.58
2019-02-22T14:58:46.145Z,19.43
2019-02-22T15:03:45.692Z,21.37
2019-02-22T15:08:55.636Z,19.75
2019-02-22T15:14:18.678Z,20.90
2019-02-22T15:19:09.450Z,20.86
2019-02-22T15:24:18.677Z,21.47
2019-02-22T15:29:09.406Z,21.69
2019-02-22T15:34:20.833Z,20.01
2019-02-22T15:39:17.718Z,21.06
2019-02-22T15:44:30.396Z,19.60
2019-02-22T15:49:38.066Z,19.98
2019-02-22T15:54:42.562Z,20.81
2019-02-22T15:59:47.949Z,18.88
2019-02-22T16:04:54.933Z,20.77
2019-02-22T16:09:54.956Z,21.56
2019-02-22T16:14:58.969Z,19.82
2019-02-22T16:20:06.594Z,21.31
2019-02-22T16:25:19.698Z,21.93
2019-02-22T16:30:10.010Z,18.58
2019-02-22T16:35:15.795Z,22.74
2019-02-22T16:40:25.953Z,17.84
2019-02-22T16:45:43.420Z,16.50
2019-02-22T16:50:57.050Z,18.67
2019-02-22T16:55:46.601Z,18.69
2019-02-22T17:00:49.943Z,18.39
2019-02-22T17:05:47.221Z,20.84
2019-02-22T17:10:57.960Z,21.88
2019-02-22T17:15:56.565Z,18.85
2019-02-22T17:21:10.226Z,39.32
2019-02-22T17:26:09.781Z,22.59
2019-02-22T17:31:17.160Z,16.23
2019-02-22T17:36:26.484Z,10.17
2019-02-22T17:41:23.794Z,8.72
2019-02-22T17:46:25.023Z,7.26
2019-02-22T17:51:32.531Z,7.73
2019-02-22T17:56:34.487Z,7.36
2019-02-22T18:01:34.241Z,7.53
2019-02-22T18:06:36.559Z,8.34
2019-02-22T18:11:43.736Z,10.76
2019-02-22T18:16:44.148Z,9.72
2019-02-22T18:21:52.600Z,8.66
2019-02-22T18:26:53.582Z,8.75
2019-02-22T18:32:04.040Z,10.93
2019-02-22T18:37:14.269Z,16.23
2019-02-22T18:42:07.134Z,22.48
2019-02-22T18:47:18.981Z,14.88
2019-02-22T18:52:28.225Z,13.58
2019-02-22T18:57:17.682Z,11.28
2019-02-22T19:02:18.314Z,10.11
2019-02-22T19:07:29.047Z,10.15
2019-02-22T19:12:34.395Z,11.74
2019-02-22T19:17:32.949Z,12.44
2019-02-22T19:22:51.574Z,10.76
2019-02-22T19:27:53.453Z,6.63
2019-02-22T19:32:56.661Z,8.05
2019-02-22T19:37:56.529Z,7.70
2019-02-22T19:43:12.612Z,5.95
2019-02-22T19:48:22.839Z,8.29
2019-02-22T19:53:28.128Z,5.59
2019-02-22T19:58:28.852Z,5.72
2019-02-22T20:03:27.686Z,5.92
2019-02-22T20:08:39.468Z,7.55
2019-02-22T20:13:43.154Z,6.46
2019-02-22T20:18:47.491Z,5.31
2019-02-22T20:23:50.332Z,4.94
2019-02-22T20:28:50.897Z,4.65
2019-02-22T20:34:02.002Z,4.52
2019-02-22T20:38:52.884Z,4.83
2019-02-22T20:44:14.252Z,5.95
2019-02-22T20:49:15.423Z,13.21
2019-02-22T20:54:35.262Z,12.48
2019-02-22T20:59:26.490Z,5.74
2019-02-22T21:04:35.757Z,12.36
2019-02-22T21:09:36.892Z,32.19
2019-02-22T21:14:57.336Z,6.94
2019-02-22T21:19:49.999Z,10.39
2019-02-22T21:24:50.373Z,4.86
2019-02-22T21:29:55.101Z,4.52
2019-02-22T21:34:56.401Z,3.34
2019-02-22T21:39:55.288Z,9.84
2019-02-22T21:45:07.128Z,3.77
2019-02-22T21:50:16.574Z,3.70
2019-02-22T21:55:16.227Z,10.31
2019-02-22T22:00:30.012Z,6.07
2019-02-22T22:05:33.488Z,3.64
2019-02-22T22:10:36.521Z,2.95
2019-02-22T22:15:38.460Z,8.32
2019-02-22T22:20:37.316Z,5.56
2019-02-22T22:25:55.187Z,4.74
2019-02-22T22:30:57.752Z,2.96
2019-02-22T22:35:54.245Z,3.42
2019-02-22T22:46:09.921Z,3.42
2019-02-22T22:51:12.814Z,2.71
2019-02-22T22:56:13.695Z,2.62
2019-02-22T23:01:22.324Z,5.03
2019-02-22T23:06:13.974Z,3.00
2019-02-22T23:11:23.268Z,4.64
2019-02-22T23:16:25.782Z,3.06
2019-02-22T23:21:41.507Z,3.20
2019-02-22T23:26:27.964Z,3.00
2019-02-22T23:31:44.004Z,3.00
2019-02-22T23:36:34.448Z,2.82
2019-02-22T23:41:38.112Z,2.76
2019-02-22T23:46:41.363Z,2.55
2019-02-22T23:51:45.118Z,2.28
2019-02-22T23:56:46.935Z,3.94
